sensor_id;sensor_type;location;lat;lon;timestamp;P1;durP1;ratioP1;P2;durP2;ratioP2
74457;SDS011;62896;51.032;3.712;2023-04-06T00:02:34;21.5;;;11.7;;
74457;SDS011;62896;51.032;3.712;2023-04-06T00:05:54;21.5;;;11.7;;
74457;SDS011;62896;51.032;3.712;2023-04-06T00:09:14;21.5;;;11.7;;
74457;SDS011;62896;51.032;3.712;2023-04-06T00:12:34;21.5;;;11.7;;
74457;SDS011;62896;51.032;3.712;2023-04-06T00:15:54;21.5;;;11.7;;
74457;SDS011;62896;51.032;3.712;2023-04-06T00:19:14;21.5;;;11.7;;
74457;SDS011;62896;51.032;3.712;2023-04-06T00:22:34;18.5;;;11.1;;
74457;SDS011;62896;51.032;3.712;2023-04-06T00:25:54;18.5;;;11.1;;
74457;SDS011;62896;51.032;3.712;2023-04-06T00:29:14;18.5;;;11.1;;
74457;SDS011;62896;51.032;3.712;2023-04-06T00:32:34;18.5;;;11.1;;
74457;SDS011;62896;51.032;3.712;2023-04-06T00:35:54;18.5;;;11.1;;
74457;SDS011;62896;51.032;3.712;2023-04-06T00:39:14;18.5;;;11.1;;
74457;SDS011;62896;51.032;3.712;2023-04-06T00:42:34;18.5;;;11.1;;
74457;SDS011;62896;51.032;3.712;2023-04-06T00:45:54;21.2;;;12.6;;
74457;SDS011;62896;51.032;3.712;2023-04-06T00:49:14;21.2;;;12.6;;
74457;SDS011;62896;51.032;3.712;2023-04-06T00:52:34;21.2;;;12.6;;
74457;SDS011;62896;51.032;3.712;2023-04-06T00:55:54;21.2;;;12.6;;
74457;SDS011;62896;51.032;3.712;2023-04-06T00:59:14;21.2;;;12.6;;
74457;SDS011;62896;51.032;3.712;2023-04-06T01:02:34;21.2;;;12.6;;
74457;SDS011;62896;51.032;3.712;2023-04-06T01:05:54;21.2;;;12.6;;
74457;SDS011;62896;51.032;3.712;2023-04-06T01:09:14;21.2;;;12.6;;
74457;SDS011;62896;51.032;3.712;2023-04-06T01:12:34;21.5;;;12.2;;
74457;SDS011;62896;51.032;3.712;2023-04-06T01:15:54;21.5;;;12.2;;
74457;SDS011;62896;51.032;3.712;2023-04-06T01:19:14;21.5;;;12.2;;
74457;SDS011;62896;51.032;3.712;2023-04-06T01:22:34;21.5;;;12.2;;
74457;SDS011;62896;51.032;3.712;2023-04-06T01:25:54;21.5;;;12.2;;
74457;SDS011;62896;51.032;3.712;2023-04-06T01:29:14;21.5;;;12.2;;
74457;SDS011;62896;51.032;3.712;2023-04-06T01:32:34;21.5;;;12.2;;
74457;SDS011;62896;51.032;3.712;2023-04-06T01:35:54;21.6;;;13.7;;
74457;SDS011;62896;51.032;3.712;2023-04-06T01:39:14;21.6;;;13.7;;
74457;SDS011;62896;51.032;3.712;2023-04-06T01:42:34;21.6;;;13.7;;
74457;SDS011;62896;51.032;3.712;2023-04-06T01:45:54;21.6;;;13.7;;
74457;SDS011;62896;51.032;3.712;2023-04-06T01:49:14;21.6;;;13.7;;
74457;SDS011;62896;51.032;3.712;2023-04-06T01:52:34;21.6;;;13.7;;
74457;SDS011;62896;51.032;3.712;2023-04-06T01:55:54;21.6;;;13.7;;
74457;SDS011;62896;51.032;3.712;2023-04-06T01:59:14;21.6;;;13.7;;
74457;SDS011;62896;51.032;3.712;2023-04-06T02:02:34;23.5;;;15.1;;
74457;SDS011;62896;51.032;3.712;2023-04-06T02:05:54;23.5;;;15.1;;
74457;SDS011;62896;51.032;3.712;2023-04-06T02:09:14;23.5;;;15.1;;
74457;SDS011;62896;51.032;3.712;2023-04-06T02:12:34;23.5;;;15.1;;
74457;SDS011;62896;51.032;3.712;2023-04-06T02:15:54;23.5;;;15.1;;
74457;SDS011;62896;51.032;3.712;2023-04-06T02:19:14;23.5;;;15.1;;
74457;SDS011;62896;51.032;3.712;2023-04-06T02:22:35;23.5;;;15.1;;
74457;SDS011;62896;51.032;3.712;2023-04-06T02:25:54;27.8;;;17.2;;
74457;SDS011;62896;51.032;3.712;2023-04-06T02:29:14;27.8;;;17.2;;
74457;SDS011;62896;51.032;3.712;2023-04-06T02:32:34;27.8;;;17.2;;
74457;SDS011;62896;51.032;3.712;2023-04-06T02:35:54;27.8;;;17.2;;
74457;SDS011;62896;51.032;3.712;2023-04-06T02:39:14;27.8;;;17.2;;
74457;SDS011;62896;51.032;3.712;2023-04-06T02:42:34;27.8;;;17.2;;
74457;SDS011;62896;51.032;3.712;2023-04-06T02:45:54;27.8;;;17.2;;
74457;SDS011;62896;51.032;3.712;2023-04-06T02:52:34;26.5;;;16.9;;
74457;SDS011;62896;51.032;3.712;2023-04-06T02:55:54;26.5;;;16.9;;
74457;SDS011;62896;51.032;3.712;2023-04-06T16:12:34;16.5;;;3.4;;
74457;SDS011;62896;51.032;3.712;2023-04-06T16:15:54;16.5;;;3.4;;
74457;SDS011;62896;51.032;3.712;2023-04-06T16:19:14;16.5;;;3.4;;
74457;SDS011;62896;51.032;3.712;2023-04-06T16:22:34;16.5;;;3.4;;
74457;SDS011;62896;51.032;3.712;2023-04-06T16:25:54;16.5;;;3.4;;
74457;SDS011;62896;51.032;3.712;2023-04-06T16:29:14;16.5;;;3.4;;
74457;SDS011;62896;51.032;3.712;2023-04-06T16:32:34;16.5;;;3.4;;
74457;SDS011;62896;51.032;3.712;2023-04-06T16:35:54;16.1;;;4.2;;
74457;SDS011;62896;51.032;3.712;2023-04-06T16:39:14;16.1;;;4.2;;
74457;SDS011;62896;51.032;3.712;2023-04-06T16:42:34;16.1;;;4.2;;
74457;SDS011;62896;51.032;3.712;2023-04-06T16:45:54;16.1;;;4.2;;
74457;SDS011;62896;51.032;3.712;2023-04-06T16:49:14;16.1;;;4.2;;
74457;SDS011;62896;51.032;3.712;2023-04-06T16:52:34;16.1;;;4.2;;
74457;SDS011;62896;51.032;3.712;2023-04-06T16:55:54;16.1;;;4.2;;
74457;SDS011;62896;51.032;3.712;2023-04-06T16:59:14;16.1;;;4.2;;
74457;SDS011;62896;51.032;3.712;2023-04-06T17:02:34;15.4;;;4.9;;
74457;SDS011;62896;51.032;3.712;2023-04-06T17:05:54;15.4;;;4.9;;
74457;SDS011;62896;51.032;3.712;2023-04-06T17:09:14;15.4;;;4.9;;
74457;SDS011;62896;51.032;3.712;2023-04-06T17:12:34;15.4;;;4.9;;
74457;SDS011;62896;51.032;3.712;2023-04-06T17:15:54;15.4;;;4.9;;
74457;SDS011;62896;51.032;3.712;2023-04-06T17:19:14;15.4;;;4.9;;
74457;SDS011;62896;51.032;3.712;2023-04-06T17:22:34;15.4;;;4.9;;
74457;SDS011;62896;51.032;3.712;2023-04-06T17:25:54;14.3;;;5;;
74457;SDS011;62896;51.032;3.712;2023-04-06T17:29:14;14.3;;;5;;
74457;SDS011;62896;51.032;3.712;2023-04-06T17:32:34;14.3;;;5;;
74457;SDS011;62896;51.032;3.712;2023-04-06T17:35:54;14.3;;;5;;
74457;SDS011;62896;51.032;3.712;2023-04-06T17:39:14;14.3;;;5;;
74457;SDS011;62896;51.032;3.712;2023-04-06T17:42:34;14.3;;;5;;
74457;SDS011;62896;51.032;3.712;2023-04-06T17:45:55;14.3;;;5;;
74457;SDS011;62896;51.032;3.712;2023-04-06T17:49:14;14.3;;;5;;
74457;SDS011;62896;51.032;3.712;2023-04-06T17:52:34;12.3;;;5;;
74457;SDS011;62896;51.032;3.712;2023-04-06T17:55:54;12.3;;;5;;
74457;SDS011;62896;51.032;3.712;2023-04-06T17:59:14;12.3;;;5;;
74457;SDS011;62896;51.032;3.712;2023-04-06T18:02:34;12.3;;;5;;
74457;SDS011;62896;51.032;3.712;2023-04-06T18:05:54;12.3;;;5;;
74457;SDS011;62896;51.032;3.712;2023-04-06T18:09:14;12.3;;;5;;
74457;SDS011;62896;51.032;3.712;2023-04-06T18:12:34;12.3;;;5;;
74457;SDS011;62896;51.032;3.712;2023-04-06T18:15:54;10.4;;;4.6;;
74457;SDS011;62896;51.032;3.712;2023-04-06T18:19:15;10.4;;;4.6;;
74457;SDS011;62896;51.032;3.712;2023-04-06T18:22:34;10.4;;;4.6;;
74457;SDS011;62896;51.032;3.712;2023-04-06T18:25:54;10.4;;;4.6;;
74457;SDS011;62896;51.032;3.712;2023-04-06T18:29:14;10.4;;;4.6;;
74457;SDS011;62896;51.032;3.712;2023-04-06T18:32:34;10.4;;;4.6;;
74457;SDS011;62896;51.032;3.712;2023-04-06T18:35:55;10.4;;;4.6;;
74457;SDS011;62896;51.032;3.712;2023-04-06T18:39:14;10.4;;;4.6;;
74457;SDS011;62896;51.032;3.712;2023-04-06T18:42:34;10.9;;;3.3;;
74457;SDS011;62896;51.032;3.712;2023-04-06T18:45:54;10.9;;;3.3;;
74457;SDS011;62896;51.032;3.712;2023-04-06T18:49:14;10.9;;;3.3;;
74457;SDS011;62896;51.032;3.712;2023-04-06T18:52:35;10.9;;;3.3;;
74457;SDS011;62896;51.032;3.712;2023-04-06T18:55:54;10.9;;;3.3;;
74457;SDS011;62896;51.032;3.712;2023-04-06T18:59:15;10.9;;;3.3;;
74457;SDS011;62896;51.032;3.712;2023-04-06T19:02:34;10.9;;;3.3;;
74457;SDS011;62896;51.032;3.712;2023-04-06T19:05:54;9.7;;;3.7;;
74457;SDS011;62896;51.032;3.712;2023-04-06T19:09:15;9.7;;;3.7;;
74457;SDS011;62896;51.032;3.712;2023-04-06T19:12:35;9.7;;;3.7;;
74457;SDS011;62896;51.032;3.712;2023-04-06T19:15:54;9.7;;;3.7;;
74457;SDS011;62896;51.032;3.712;2023-04-06T19:19:14;9.7;;;3.7;;
74457;SDS011;62896;51.032;3.712;2023-04-06T19:22:35;9.7;;;3.7;;
74457;SDS011;62896;51.032;3.712;2023-04-06T19:25:55;9.7;;;3.7;;
74457;SDS011;62896;51.032;3.712;2023-04-06T19:29:15;9.7;;;3.7;;
74457;SDS011;62896;51.032;3.712;2023-04-06T19:32:35;9.6;;;4.3;;
74457;SDS011;62896;51.032;3.712;2023-04-06T19:35:55;9.6;;;4.3;;
74457;SDS011;62896;51.032;3.712;2023-04-06T19:39:15;9.6;;;4.3;;
74457;SDS011;62896;51.032;3.712;2023-04-06T19:42:35;9.6;;;4.3;;
74457;SDS011;62896;51.032;3.712;2023-04-06T19:45:55;9.6;;;4.3;;
74457;SDS011;62896;51.032;3.712;2023-04-06T19:49:15;9.6;;;4.3;;
74457;SDS011;62896;51.032;3.712;2023-04-06T19:52:35;9.6;;;4.3;;
74457;SDS011;62896;51.032;3.712;2023-04-06T19:55:55;9.6;;;4.9;;
74457;SDS011;62896;51.032;3.712;2023-04-06T19:59:15;9.6;;;4.9;;
74457;SDS011;62896;51.032;3.712;2023-04-06T20:02:35;9.6;;;4.9;;
74457;SDS011;62896;51.032;3.712;2023-04-06T20:05:55;9.6;;;4.9;;
74457;SDS011;62896;51.032;3.712;2023-04-06T20:09:15;9.6;;;4.9;;
74457;SDS011;62896;51.032;3.712;2023-04-06T20:12:35;9.6;;;4.9;;
74457;SDS011;62896;51.032;3.712;2023-04-06T20:15:56;9.6;;;4.9;;
74457;SDS011;62896;51.032;3.712;2023-04-06T20:19:15;9.6;;;4.9;;
74457;SDS011;62896;51.032;3.712;2023-04-06T20:22:35;20.9;;;5.4;;
74457;SDS011;62896;51.032;3.712;2023-04-06T20:25:55;20.9;;;5.4;;
74457;SDS011;62896;51.032;3.712;2023-04-06T20:29:15;20.9;;;5.4;;
74457;SDS011;62896;51.032;3.712;2023-04-06T20:32:35;20.9;;;5.4;;
74457;SDS011;62896;51.032;3.712;2023-04-06T20:35:55;20.9;;;5.4;;
74457;SDS011;62896;51.032;3.712;2023-04-06T20:39:15;20.9;;;5.4;;
74457;SDS011;62896;51.032;3.712;2023-04-06T20:42:35;20.9;;;5.4;;
74457;SDS011;62896;51.032;3.712;2023-04-06T20:45:55;25.1;;;4.7;;
74457;SDS011;62896;51.032;3.712;2023-04-06T20:49:15;25.1;;;4.7;;
74457;SDS011;62896;51.032;3.712;2023-04-06T20:52:35;25.1;;;4.7;;
74457;SDS011;62896;51.032;3.712;2023-04-06T20:55:55;25.1;;;4.7;;
74457;SDS011;62896;51.032;3.712;2023-04-06T20:59:15;25.1;;;4.7;;
74457;SDS011;62896;51.032;3.712;2023-04-06T21:02:35;25.1;;;4.7;;
74457;SDS011;62896;51.032;3.712;2023-04-06T21:05:55;25.1;;;4.7;;
74457;SDS011;62896;51.032;3.712;2023-04-06T21:09:15;25.1;;;4.7;;
74457;SDS011;62896;51.032;3.712;2023-04-06T21:12:35;14.1;;;3.3;;
74457;SDS011;62896;51.032;3.712;2023-04-06T21:15:55;14.1;;;3.3;;
74457;SDS011;62896;51.032;3.712;2023-04-06T21:19:15;14.1;;;3.3;;
74457;SDS011;62896;51.032;3.712;2023-04-06T21:22:35;14.1;;;3.3;;
74457;SDS011;62896;51.032;3.712;2023-04-06T21:25:55;14.1;;;3.3;;
74457;SDS011;62896;51.032;3.712;2023-04-06T21:29:15;14.1;;;3.3;;
74457;SDS011;62896;51.032;3.712;2023-04-06T21:32:35;14.1;;;3.3;;
74457;SDS011;62896;51.032;3.712;2023-04-06T21:35:55;13.2;;;4.1;;
74457;SDS011;62896;51.032;3.712;2023-04-06T21:39:15;13.2;;;4.1;;
74457;SDS011;62896;51.032;3.712;2023-04-06T21:42:35;13.2;;;4.1;;
74457;SDS011;62896;51.032;3.712;2023-04-06T21:45:55;13.2;;;4.1;;
74457;SDS011;62896;51.032;3.712;2023-04-06T21:49:15;13.2;;;4.1;;
74457;SDS011;62896;51.032;3.712;2023-04-06T21:52:35;13.2;;;4.1;;
74457;SDS011;62896;51.032;3.712;2023-04-06T21:55:55;13.2;;;4.1;;
74457;SDS011;62896;51.032;3.712;2023-04-06T21:59:15;13.2;;;4.1;;
74457;SDS011;62896;51.032;3.712;2023-04-06T22:02:35;7.5;;;3.1;;
74457;SDS011;62896;51.032;3.712;2023-04-06T22:05:55;7.5;;;3.1;;
74457;SDS011;62896;51.032;3.712;2023-04-06T22:09:15;7.5;;;3.1;;
74457;SDS011;62896;51.032;3.712;2023-04-06T22:12:35;7.5;;;3.1;;
74457;SDS011;62896;51.032;3.712;2023-04-06T22:15:55;7.5;;;3.1;;
74457;SDS011;62896;51.032;3.712;2023-04-06T22:19:15;7.5;;;3.1;;
74457;SDS011;62896;51.032;3.712;2023-04-06T22:22:35;7.5;;;3.1;;
74457;SDS011;62896;51.032;3.712;2023-04-06T22:25:55;5.7;;;3.5;;
74457;SDS011;62896;51.032;3.712;2023-04-06T22:29:15;5.7;;;3.5;;
74457;SDS011;62896;51.032;3.712;2023-04-06T22:32:35;5.7;;;3.5;;
74457;SDS011;62896;51.032;3.712;2023-04-06T22:35:55;5.7;;;3.5;;
74457;SDS011;62896;51.032;3.712;2023-04-06T22:39:15;5.7;;;3.5;;
74457;SDS011;62896;51.032;3.712;2023-04-06T22:42:35;5.7;;;3.5;;
74457;SDS011;62896;51.032;3.712;2023-04-06T22:45:55;5.7;;;3.5;;
74457;SDS011;62896;51.032;3.712;2023-04-06T22:49:15;5.7;;;3.5;;
74457;SDS011;62896;51.032;3.712;2023-04-06T22:52:35;6.9;;;3.9;;
74457;SDS011;62896;51.032;3.712;2023-04-06T22:55:55;6.9;;;3.9;;
74457;SDS011;62896;51.032;3.712;2023-04-06T22:59:15;6.9;;;3.9;;
74457;SDS011;62896;51.032;3.712;2023-04-06T23:02:35;6.9;;;3.9;;
74457;SDS011;62896;51.032;3.712;2023-04-06T23:05:55;6.9;;;3.9;;
74457;SDS011;62896;51.032;3.712;2023-04-06T23:09:15;6.9;;;3.9;;
74457;SDS011;62896;51.032;3.712;2023-04-06T23:12:35;6.9;;;3.9;;
74457;SDS011;62896;51.032;3.712;2023-04-06T23:15:55;9.3;;;4.6;;
74457;SDS011;62896;51.032;3.712;2023-04-06T23:19:15;9.3;;;4.6;;
74457;SDS011;62896;51.032;3.712;2023-04-06T23:22:35;9.3;;;4.6;;
74457;SDS011;62896;51.032;3.712;2023-04-06T23:25:55;9.3;;;4.6;;
74457;SDS011;62896;51.032;3.712;2023-04-06T23:29:15;9.3;;;4.6;;
74457;SDS011;62896;51.032;3.712;2023-04-06T23:32:35;9.3;;;4.6;;
74457;SDS011;62896;51.032;3.712;2023-04-06T23:35:55;9.3;;;4.6;;
74457;SDS011;62896;51.032;3.712;2023-04-06T23:39:15;9.3;;;4.6;;
74457;SDS011;62896;51.032;3.712;2023-04-06T23:42:35;5.2;;;1.7;;
74457;SDS011;62896;51.032;3.712;2023-04-06T23:45:55;5.2;;;1.7;;
74457;SDS011;62896;51.032;3.712;2023-04-06T23:49:15;5.2;;;1.7;;
74457;SDS011;62896;51.032;3.712;2023-04-06T23:52:35;5.2;;;1.7;;
74457;SDS011;62896;51.032;3.712;2023-04-06T23:55:55;5.2;;;1.7;;
74457;SDS011;62896;51.032;3.712;2023-04-06T23:59:15;5.2;;;1.7;;
